sensor_id;sensor_type;location;lat;lon;timestamp;pressure;altitude;pressure_sealevel;temperature;humidity
56042;BME280;48756;41.374;2.066;2022-07-06T00:02:12;101208.00;;;24.75;69.91
56042;BME280;48756;41.374;2.066;2022-07-06T00:04:37;101199.81;;;24.78;69.98
56042;BME280;48756;41.374;2.066;2022-07-06T00:07:03;101204.03;;;24.68;70.94
56042;BME280;48756;41.374;2.066;2022-07-06T00:09:28;101198.50;;;24.71;70.38
56042;BME280;48756;41.374;2.066;2022-07-06T00:11:53;101201.63;;;24.78;69.61
56042;BME280;48756;41.374;2.066;2022-07-06T00:14:19;101216.78;;;24.77;70.24
56042;BME280;48756;41.374;2.066;2022-07-06T00:16:44;101216.06;;;24.59;70.36
56042;BME280;48756;41.374;2.066;2022-07-06T00:19:10;101232.94;;;24.88;69.25
56042;BME280;48756;41.374;2.066;2022-07-06T00:21:35;101234.09;;;24.84;69.93
56042;BME280;48756;41.374;2.066;2022-07-06T00:24:00;101233.25;;;24.84;69.07
56042;BME280;48756;41.374;2.066;2022-07-06T00:26:26;101224.84;;;24.61;68.91
56042;BME280;48756;41.374;2.066;2022-07-06T00:28:51;101222.16;;;24.61;68.99
56042;BME280;48756;41.374;2.066;2022-07-06T00:31:16;101217.59;;;24.63;68.08
56042;BME280;48756;41.374;2.066;2022-07-06T00:33:42;101233.47;;;24.95;67.84
56042;BME280;48756;41.374;2.066;2022-07-06T00:36:07;101230.22;;;24.90;66.83
56042;BME280;48756;41.374;2.066;2022-07-06T00:38:32;101236.09;;;24.81;66.05
56042;BME280;48756;41.374;2.066;2022-07-06T00:40:58;101235.16;;;24.96;65.78
56042;BME280;48756;41.374;2.066;2022-07-06T00:43:23;101230.91;;;25.08;65.20
56042;BME280;48756;41.374;2.066;2022-07-06T00:45:48;101222.66;;;25.12;64.69
56042;BME280;48756;41.374;2.066;2022-07-06T00:48:14;101226.06;;;25.14;64.98
56042;BME280;48756;41.374;2.066;2022-07-06T00:50:39;101227.47;;;25.06;65.80
56042;BME280;48756;41.374;2.066;2022-07-06T00:53:05;101218.91;;;25.00;65.56
56042;BME280;48756;41.374;2.066;2022-07-06T00:55:37;101202.78;;;24.88;65.13
56042;BME280;48756;41.374;2.066;2022-07-06T00:58:05;101204.22;;;24.93;65.06
56042;BME280;48756;41.374;2.066;2022-07-06T01:00:30;101200.31;;;24.85;64.42
56042;BME280;48756;41.374;2.066;2022-07-06T01:02:56;101199.53;;;24.83;64.50
56042;BME280;48756;41.374;2.066;2022-07-06T01:05:22;101196.44;;;25.04;63.42
56042;BME280;48756;41.374;2.066;2022-07-06T01:07:48;101189.69;;;24.99;63.43
56042;BME280;48756;41.374;2.066;2022-07-06T01:10:14;101177.22;;;24.99;62.93
56042;BME280;48756;41.374;2.066;2022-07-06T01:12:40;101178.06;;;25.00;63.32
56042;BME280;48756;41.374;2.066;2022-07-06T01:15:07;101179.28;;;25.09;63.21
56042;BME280;48756;41.374;2.066;2022-07-06T01:17:33;101178.91;;;25.15;62.78
56042;BME280;48756;41.374;2.066;2022-07-06T01:20:14;101178.44;;;25.08;62.01
56042;BME280;48756;41.374;2.066;2022-07-06T01:22:40;101182.41;;;24.87;62.32
56042;BME280;48756;41.374;2.066;2022-07-06T01:25:06;101172.44;;;25.04;62.45
56042;BME280;48756;41.374;2.066;2022-07-06T01:27:32;101166.66;;;25.12;62.14
56042;BME280;48756;41.374;2.066;2022-07-06T01:29:59;101159.75;;;25.22;61.53
56042;BME280;48756;41.374;2.066;2022-07-06T01:32:25;101163.94;;;25.26;61.13
56042;BME280;48756;41.374;2.066;2022-07-06T01:34:50;101162.97;;;25.27;62.82
56042;BME280;48756;41.374;2.066;2022-07-06T01:37:15;101157.84;;;25.24;60.60
56042;BME280;48756;41.374;2.066;2022-07-06T01:39:41;101159.56;;;25.25;60.97
56042;BME280;48756;41.374;2.066;2022-07-06T01:42:06;101160.50;;;25.24;62.45
56042;BME280;48756;41.374;2.066;2022-07-06T01:44:32;101168.25;;;25.00;60.67
56042;BME280;48756;41.374;2.066;2022-07-06T01:46:57;101177.81;;;24.60;61.61
56042;BME280;48756;41.374;2.066;2022-07-06T01:49:22;101178.34;;;24.37;63.73
56042;BME280;48756;41.374;2.066;2022-07-06T01:51:48;101174.47;;;24.42;65.21
56042;BME280;48756;41.374;2.066;2022-07-06T01:54:13;101166.97;;;24.63;64.39
56042;BME280;48756;41.374;2.066;2022-07-06T01:56:38;101153.28;;;24.25;65.68
56042;BME280;48756;41.374;2.066;2022-07-06T01:59:04;101147.06;;;24.10;66.43
56042;BME280;48756;41.374;2.066;2022-07-06T02:01:29;101140.94;;;24.24;66.92
56042;BME280;48756;41.374;2.066;2022-07-06T02:03:54;101140.97;;;24.38;66.01
56042;BME280;48756;41.374;2.066;2022-07-06T02:06:20;101163.00;;;24.26;65.73
56042;BME280;48756;41.374;2.066;2022-07-06T02:08:45;101193.56;;;24.35;66.09
56042;BME280;48756;41.374;2.066;2022-07-06T02:11:11;101217.94;;;24.43;66.11
56042;BME280;48756;41.374;2.066;2022-07-06T02:13:36;101259.47;;;24.16;66.91
56042;BME280;48756;41.374;2.066;2022-07-06T02:16:02;101342.47;;;24.08;68.20
56042;BME280;48756;41.374;2.066;2022-07-06T02:18:28;101435.03;;;24.19;68.43
56042;BME280;48756;41.374;2.066;2022-07-06T02:20:53;101517.50;;;24.04;69.85
56042;BME280;48756;41.374;2.066;2022-07-06T02:23:19;101527.63;;;23.80;71.76
56042;BME280;48756;41.374;2.066;2022-07-06T02:25:44;101511.09;;;23.74;71.93
56042;BME280;48756;41.374;2.066;2022-07-06T02:28:09;101480.47;;;24.00;70.69
56042;BME280;48756;41.374;2.066;2022-07-06T02:30:35;101450.38;;;23.98;69.85
56042;BME280;48756;41.374;2.066;2022-07-06T02:33:00;101422.22;;;23.94;68.88
56042;BME280;48756;41.374;2.066;2022-07-06T02:35:25;101413.66;;;24.04;68.31
56042;BME280;48756;41.374;2.066;2022-07-06T02:37:51;101426.94;;;24.37;68.22
56042;BME280;48756;41.374;2.066;2022-07-06T02:40:16;101404.59;;;24.40;67.62
56042;BME280;48756;41.374;2.066;2022-07-06T02:42:42;101398.31;;;24.57;68.05
56042;BME280;48756;41.374;2.066;2022-07-06T02:45:07;101394.19;;;24.67;65.29
56042;BME280;48756;41.374;2.066;2022-07-06T02:47:33;101357.38;;;24.73;63.86
56042;BME280;48756;41.374;2.066;2022-07-06T02:49:58;101339.94;;;24.68;65.68
56042;BME280;48756;41.374;2.066;2022-07-06T02:52:23;101349.47;;;24.56;66.42
56042;BME280;48756;41.374;2.066;2022-07-06T02:54:49;101358.31;;;24.72;68.58
56042;BME280;48756;41.374;2.066;2022-07-06T02:57:17;101356.03;;;24.81;67.10
56042;BME280;48756;41.374;2.066;2022-07-06T02:59:43;101349.81;;;24.96;66.19
56042;BME280;48756;41.374;2.066;2022-07-06T03:02:09;101335.84;;;25.07;74.41
56042;BME280;48756;41.374;2.066;2022-07-06T03:04:34;101299.09;;;24.67;68.59
56042;BME280;48756;41.374;2.066;2022-07-06T03:07:00;101272.75;;;24.77;70.74
56042;BME280;48756;41.374;2.066;2022-07-06T03:09:25;101325.50;;;24.86;72.07
56042;BME280;48756;41.374;2.066;2022-07-06T03:11:51;101403.28;;;24.63;69.17
56042;BME280;48756;41.374;2.066;2022-07-06T03:14:17;101433.09;;;24.22;73.58
56042;BME280;48756;41.374;2.066;2022-07-06T03:16:42;101407.75;;;23.99;72.91
56042;BME280;48756;41.374;2.066;2022-07-06T03:19:07;101390.91;;;24.14;74.22
56042;BME280;48756;41.374;2.066;2022-07-06T03:21:33;101392.38;;;24.36;75.06
56042;BME280;48756;41.374;2.066;2022-07-06T03:23:58;101395.72;;;24.39;75.56
56042;BME280;48756;41.374;2.066;2022-07-06T03:26:24;101403.31;;;24.47;74.81
56042;BME280;48756;41.374;2.066;2022-07-06T03:28:49;101405.03;;;24.32;75.78
56042;BME280;48756;41.374;2.066;2022-07-06T03:31:14;101413.66;;;24.20;75.83
56042;BME280;48756;41.374;2.066;2022-07-06T03:33:40;101395.94;;;23.88;77.02
56042;BME280;48756;41.374;2.066;2022-07-06T03:36:05;101384.09;;;23.77;77.53
56042;BME280;48756;41.374;2.066;2022-07-06T03:38:31;101384.66;;;23.49;78.54
56042;BME280;48756;41.374;2.066;2022-07-06T03:40:56;101395.59;;;23.78;77.86
56042;BME280;48756;41.374;2.066;2022-07-06T03:43:21;101407.53;;;23.87;76.53
56042;BME280;48756;41.374;2.066;2022-07-06T03:45:47;101417.41;;;23.85;75.79
56042;BME280;48756;41.374;2.066;2022-07-06T03:48:12;101426.72;;;24.09;74.02
56042;BME280;48756;41.374;2.066;2022-07-06T03:50:37;101440.34;;;24.36;72.99
56042;BME280;48756;41.374;2.066;2022-07-06T03:53:03;101431.91;;;24.43;72.73
56042;BME280;48756;41.374;2.066;2022-07-06T03:55:28;101437.00;;;24.48;74.67
56042;BME280;48756;41.374;2.066;2022-07-06T03:57:53;101440.00;;;24.58;75.04
56042;BME280;48756;41.374;2.066;2022-07-06T04:00:19;101454.66;;;24.65;73.70
56042;BME280;48756;41.374;2.066;2022-07-06T04:02:44;101471.53;;;24.50;75.02
56042;BME280;48756;41.374;2.066;2022-07-06T04:05:09;101488.53;;;24.31;75.85
56042;BME280;48756;41.374;2.066;2022-07-06T04:07:35;101491.13;;;24.16;77.79
56042;BME280;48756;41.374;2.066;2022-07-06T04:10:00;101493.66;;;23.68;78.57
56042;BME280;48756;41.374;2.066;2022-07-06T04:12:26;101477.94;;;23.81;77.45
56042;BME280;48756;41.374;2.066;2022-07-06T04:14:51;101461.31;;;23.76;77.62
56042;BME280;48756;41.374;2.066;2022-07-06T04:17:16;101460.47;;;23.75;77.30
56042;BME280;48756;41.374;2.066;2022-07-06T04:20:00;101450.19;;;23.85;74.39
56042;BME280;48756;41.374;2.066;2022-07-06T04:22:26;101431.91;;;23.95;73.15
56042;BME280;48756;41.374;2.066;2022-07-06T04:24:51;101431.53;;;24.02;73.26
56042;BME280;48756;41.374;2.066;2022-07-06T04:27:16;101439.34;;;24.21;73.69
56042;BME280;48756;41.374;2.066;2022-07-06T04:29:44;101446.72;;;24.16;71.73
56042;BME280;48756;41.374;2.066;2022-07-06T04:32:10;101444.53;;;24.24;68.26
56042;BME280;48756;41.374;2.066;2022-07-06T04:34:35;101452.22;;;24.46;68.03
56042;BME280;48756;41.374;2.066;2022-07-06T04:37:01;101449.09;;;24.54;69.78
56042;BME280;48756;41.374;2.066;2022-07-06T04:39:26;101436.13;;;24.48;70.22
56042;BME280;48756;41.374;2.066;2022-07-06T04:41:52;101402.00;;;24.70;70.98
56042;BME280;48756;41.374;2.066;2022-07-06T04:44:18;101401.03;;;24.71;72.60
56042;BME280;48756;41.374;2.066;2022-07-06T04:46:43;101412.56;;;24.56;73.31
56042;BME280;48756;41.374;2.066;2022-07-06T04:49:09;101403.53;;;24.27;74.10
56042;BME280;48756;41.374;2.066;2022-07-06T04:51:34;101385.84;;;24.26;76.06
56042;BME280;48756;41.374;2.066;2022-07-06T04:53:59;101382.00;;;24.47;77.96
56042;BME280;48756;41.374;2.066;2022-07-06T04:56:25;101379.25;;;24.49;78.43
56042;BME280;48756;41.374;2.066;2022-07-06T04:58:50;101376.22;;;24.39;77.97
56042;BME280;48756;41.374;2.066;2022-07-06T05:01:15;101381.66;;;24.37;78.06
56042;BME280;48756;41.374;2.066;2022-07-06T05:03:41;101410.66;;;24.26;77.92
56042;BME280;48756;41.374;2.066;2022-07-06T05:06:06;101473.16;;;23.70;79.71
56042;BME280;48756;41.374;2.066;2022-07-06T05:08:32;101506.25;;;23.65;79.75
56042;BME280;48756;41.374;2.066;2022-07-06T05:10:57;101528.13;;;23.18;82.43
56042;BME280;48756;41.374;2.066;2022-07-06T05:13:23;101511.75;;;23.08;83.12
56042;BME280;48756;41.374;2.066;2022-07-06T05:15:48;101484.47;;;23.22;81.60
56042;BME280;48756;41.374;2.066;2022-07-06T05:18:13;101464.44;;;23.49;81.04
56042;BME280;48756;41.374;2.066;2022-07-06T05:20:39;101445.47;;;23.57;79.49
56042;BME280;48756;41.374;2.066;2022-07-06T05:23:04;101414.34;;;23.75;81.48
56042;BME280;48756;41.374;2.066;2022-07-06T05:25:30;101371.16;;;23.19;83.39
56042;BME280;48756;41.374;2.066;2022-07-06T05:27:56;101312.31;;;22.92;85.34
56042;BME280;48756;41.374;2.066;2022-07-06T05:30:22;101293.56;;;22.96;85.70
56042;BME280;48756;41.374;2.066;2022-07-06T05:32:47;101280.69;;;23.54;85.88
56042;BME280;48756;41.374;2.066;2022-07-06T05:35:13;101242.59;;;23.69;85.08
56042;BME280;48756;41.374;2.066;2022-07-06T05:37:38;101212.16;;;23.59;82.45
56042;BME280;48756;41.374;2.066;2022-07-06T05:40:03;101185.47;;;23.61;82.08
56042;BME280;48756;41.374;2.066;2022-07-06T05:42:29;101169.72;;;23.88;79.61
56042;BME280;48756;41.374;2.066;2022-07-06T05:44:55;101183.09;;;24.02;81.06
56042;BME280;48756;41.374;2.066;2022-07-06T05:47:21;101201.56;;;23.89;79.21
56042;BME280;48756;41.374;2.066;2022-07-06T05:50:04;101244.13;;;23.73;80.26
56042;BME280;48756;41.374;2.066;2022-07-06T05:52:43;101271.81;;;23.53;78.60
56042;BME280;48756;41.374;2.066;2022-07-06T05:55:10;101295.13;;;23.00;82.54
56042;BME280;48756;41.374;2.066;2022-07-06T05:57:35;101291.94;;;22.93;81.99
56042;BME280;48756;41.374;2.066;2022-07-06T06:00:01;101293.72;;;23.26;78.46
56042;BME280;48756;41.374;2.066;2022-07-06T06:02:26;101284.25;;;23.53;77.48
56042;BME280;48756;41.374;2.066;2022-07-06T06:05:00;101279.75;;;23.55;77.69
56042;BME280;48756;41.374;2.066;2022-07-06T06:07:26;101284.75;;;23.61;78.41
56042;BME280;48756;41.374;2.066;2022-07-06T06:09:51;101279.41;;;23.93;77.65
56042;BME280;48756;41.374;2.066;2022-07-06T06:12:16;101269.19;;;24.17;78.14
56042;BME280;48756;41.374;2.066;2022-07-06T06:14:42;101273.28;;;24.38;80.67
56042;BME280;48756;41.374;2.066;2022-07-06T06:17:07;101270.00;;;24.49;80.46
56042;BME280;48756;41.374;2.066;2022-07-06T06:19:35;101276.00;;;24.52;75.52
56042;BME280;48756;41.374;2.066;2022-07-06T06:22:01;101311.78;;;24.17;77.35
56042;BME280;48756;41.374;2.066;2022-07-06T06:24:26;101327.41;;;23.60;81.15
56042;BME280;48756;41.374;2.066;2022-07-06T06:26:53;101324.81;;;23.74;81.33
56042;BME280;48756;41.374;2.066;2022-07-06T06:29:18;101336.19;;;23.77;80.31
56042;BME280;48756;41.374;2.066;2022-07-06T06:31:43;101326.50;;;23.76;81.22
56042;BME280;48756;41.374;2.066;2022-07-06T06:34:12;101301.66;;;23.76;80.16
56042;BME280;48756;41.374;2.066;2022-07-06T06:36:37;101287.75;;;24.02;80.31
56042;BME280;48756;41.374;2.066;2022-07-06T06:39:02;101279.56;;;24.37;77.83
56042;BME280;48756;41.374;2.066;2022-07-06T06:41:28;101250.81;;;24.58;74.69
56042;BME280;48756;41.374;2.066;2022-07-06T06:43:53;101235.44;;;24.77;72.81
56042;BME280;48756;41.374;2.066;2022-07-06T06:46:18;101248.06;;;25.03;73.12
56042;BME280;48756;41.374;2.066;2022-07-06T06:48:44;101285.09;;;25.08;70.52
56042;BME280;48756;41.374;2.066;2022-07-06T06:51:09;101297.31;;;24.82;71.80
56042;BME280;48756;41.374;2.066;2022-07-06T06:53:34;101296.41;;;24.97;71.34
56042;BME280;48756;41.374;2.066;2022-07-06T06:56:00;101297.03;;;24.87;71.47
56042;BME280;48756;41.374;2.066;2022-07-06T06:58:25;101311.28;;;25.01;71.39
56042;BME280;48756;41.374;2.066;2022-07-06T07:00:50;101309.00;;;25.10;71.11
56042;BME280;48756;41.374;2.066;2022-07-06T07:03:16;101312.91;;;25.32;70.64
56042;BME280;48756;41.374;2.066;2022-07-06T07:05:41;101315.41;;;25.21;69.27
56042;BME280;48756;41.374;2.066;2022-07-06T07:08:07;101344.13;;;25.02;70.91
56042;BME280;48756;41.374;2.066;2022-07-06T07:10:32;101352.56;;;24.94;72.95
56042;BME280;48756;41.374;2.066;2022-07-06T07:12:58;101370.00;;;24.70;74.35
56042;BME280;48756;41.374;2.066;2022-07-06T07:15:23;101360.34;;;24.83;74.51
56042;BME280;48756;41.374;2.066;2022-07-06T07:17:48;101345.03;;;25.17;72.58
56042;BME280;48756;41.374;2.066;2022-07-06T07:20:14;101342.25;;;25.32;71.62
56042;BME280;48756;41.374;2.066;2022-07-06T07:22:39;101345.78;;;25.33;70.95
56042;BME280;48756;41.374;2.066;2022-07-06T07:25:05;101338.75;;;25.18;68.92
56042;BME280;48756;41.374;2.066;2022-07-06T07:27:30;101338.94;;;25.43;69.30
56042;BME280;48756;41.374;2.066;2022-07-06T07:29:58;101334.47;;;25.44;68.09
56042;BME280;48756;41.374;2.066;2022-07-06T07:32:23;101315.31;;;25.23;67.79
56042;BME280;48756;41.374;2.066;2022-07-06T07:34:49;101321.31;;;25.41;67.88
56042;BME280;48756;41.374;2.066;2022-07-06T07:37:14;101318.75;;;25.25;68.47
56042;BME280;48756;41.374;2.066;2022-07-06T07:39:39;101323.03;;;25.27;68.47
56042;BME280;48756;41.374;2.066;2022-07-06T07:42:05;101338.63;;;25.33;67.50
56042;BME280;48756;41.374;2.066;2022-07-06T07:44:30;101342.84;;;25.66;67.27
56042;BME280;48756;41.374;2.066;2022-07-06T07:46:55;101346.31;;;25.68;67.54
56042;BME280;48756;41.374;2.066;2022-07-06T07:49:21;101341.03;;;25.67;67.14
56042;BME280;48756;41.374;2.066;2022-07-06T07:51:47;101333.63;;;25.86;66.42
56042;BME280;48756;41.374;2.066;2022-07-06T07:54:12;101328.75;;;25.78;68.58
56042;BME280;48756;41.374;2.066;2022-07-06T07:56:38;101339.41;;;26.07;68.07
56042;BME280;48756;41.374;2.066;2022-07-06T07:59:05;101335.88;;;26.06;67.72
56042;BME280;48756;41.374;2.066;2022-07-06T08:01:31;101338.13;;;26.12;67.63
56042;BME280;48756;41.374;2.066;2022-07-06T08:03:57;101336.75;;;26.19;67.68
56042;BME280;48756;41.374;2.066;2022-07-06T08:06:23;101341.63;;;26.27;65.26
56042;BME280;48756;41.374;2.066;2022-07-06T08:08:48;101342.06;;;26.34;67.21
56042;BME280;48756;41.374;2.066;2022-07-06T08:11:13;101347.09;;;26.11;68.12
56042;BME280;48756;41.374;2.066;2022-07-06T08:13:38;101357.34;;;26.32;68.73
56042;BME280;48756;41.374;2.066;2022-07-06T08:16:04;101361.28;;;26.26;67.65
56042;BME280;48756;41.374;2.066;2022-07-06T08:18:29;101337.41;;;26.23;68.61
56042;BME280;48756;41.374;2.066;2022-07-06T08:20:55;101327.78;;;26.35;68.46
56042;BME280;48756;41.374;2.066;2022-07-06T08:23:22;101333.25;;;26.85;65.54
56042;BME280;48756;41.374;2.066;2022-07-06T08:25:47;101330.28;;;26.90;65.64
56042;BME280;48756;41.374;2.066;2022-07-06T08:28:13;101321.75;;;27.10;64.30
56042;BME280;48756;41.374;2.066;2022-07-06T08:30:38;101319.22;;;27.22;64.51
56042;BME280;48756;41.374;2.066;2022-07-06T08:33:04;101314.81;;;27.08;63.59
56042;BME280;48756;41.374;2.066;2022-07-06T08:35:29;101302.84;;;27.01;63.55
56042;BME280;48756;41.374;2.066;2022-07-06T08:37:54;101279.31;;;27.19;65.16
56042;BME280;48756;41.374;2.066;2022-07-06T08:40:20;101260.53;;;27.31;64.15
56042;BME280;48756;41.374;2.066;2022-07-06T08:42:45;101266.09;;;27.41;63.99
56042;BME280;48756;41.374;2.066;2022-07-06T08:45:13;101279.38;;;27.42;62.58
56042;BME280;48756;41.374;2.066;2022-07-06T08:47:38;101287.16;;;27.58;62.92
56042;BME280;48756;41.374;2.066;2022-07-06T08:50:06;101296.19;;;27.44;63.34
56042;BME280;48756;41.374;2.066;2022-07-06T08:52:33;101289.22;;;27.42;64.82
56042;BME280;48756;41.374;2.066;2022-07-06T08:54:59;101287.31;;;27.31;63.60
56042;BME280;48756;41.374;2.066;2022-07-06T08:57:25;101280.56;;;27.64;63.16
56042;BME280;48756;41.374;2.066;2022-07-06T08:59:50;101275.47;;;27.72;62.13
56042;BME280;48756;41.374;2.066;2022-07-06T09:02:16;101266.22;;;27.89;61.83
56042;BME280;48756;41.374;2.066;2022-07-06T09:04:42;101262.00;;;27.97;61.15
56042;BME280;48756;41.374;2.066;2022-07-06T09:07:08;101247.16;;;28.04;62.64
56042;BME280;48756;41.374;2.066;2022-07-06T09:09:33;101241.94;;;28.03;57.34
56042;BME280;48756;41.374;2.066;2022-07-06T09:11:59;101228.97;;;28.21;55.78
56042;BME280;48756;41.374;2.066;2022-07-06T09:14:24;101223.16;;;28.62;54.34
56042;BME280;48756;41.374;2.066;2022-07-06T09:17:03;101220.16;;;28.78;53.93
56042;BME280;48756;41.374;2.066;2022-07-06T09:19:30;101213.34;;;28.96;51.36
56042;BME280;48756;41.374;2.066;2022-07-06T09:21:55;101206.41;;;29.16;52.62
56042;BME280;48756;41.374;2.066;2022-07-06T09:24:24;101198.00;;;29.09;50.49
56042;BME280;48756;41.374;2.066;2022-07-06T09:26:51;101218.47;;;29.33;50.46
56042;BME280;48756;41.374;2.066;2022-07-06T09:29:18;101221.19;;;28.99;51.21
56042;BME280;48756;41.374;2.066;2022-07-06T09:31:45;101219.78;;;28.82;49.90
56042;BME280;48756;41.374;2.066;2022-07-06T09:34:20;101213.34;;;28.85;49.56
56042;BME280;48756;41.374;2.066;2022-07-06T09:36:46;101221.41;;;28.39;51.98
56042;BME280;48756;41.374;2.066;2022-07-06T09:39:22;101230.25;;;28.28;52.16
56042;BME280;48756;41.374;2.066;2022-07-06T09:41:48;101246.50;;;28.38;52.00
56042;BME280;48756;41.374;2.066;2022-07-06T09:44:18;101265.47;;;29.05;48.55
56042;BME280;48756;41.374;2.066;2022-07-06T09:46:45;101277.66;;;28.98;48.36
56042;BME280;48756;41.374;2.066;2022-07-06T09:49:11;101288.31;;;28.40;49.69
56042;BME280;48756;41.374;2.066;2022-07-06T09:51:37;101281.84;;;28.78;49.88
56042;BME280;48756;41.374;2.066;2022-07-06T09:54:06;101271.06;;;28.55;50.09
56042;BME280;48756;41.374;2.066;2022-07-06T09:56:38;101290.09;;;29.10;49.68
56042;BME280;48756;41.374;2.066;2022-07-06T09:59:10;101311.22;;;28.44;49.51
56042;BME280;48756;41.374;2.066;2022-07-06T10:01:39;101331.09;;;28.77;47.13
56042;BME280;48756;41.374;2.066;2022-07-06T10:04:06;101345.22;;;29.03;46.89
56042;BME280;48756;41.374;2.066;2022-07-06T10:06:31;101342.13;;;29.42;45.93
56042;BME280;48756;41.374;2.066;2022-07-06T10:08:57;101344.59;;;29.68;44.45
56042;BME280;48756;41.374;2.066;2022-07-06T10:11:23;101347.91;;;30.26;43.68
56042;BME280;48756;41.374;2.066;2022-07-06T10:13:49;101345.50;;;30.55;42.05
56042;BME280;48756;41.374;2.066;2022-07-06T10:16:15;101359.75;;;31.19;41.78
56042;BME280;48756;41.374;2.066;2022-07-06T10:18:40;101347.53;;;31.66;40.15
56042;BME280;48756;41.374;2.066;2022-07-06T10:21:06;101350.91;;;31.59;39.73
56042;BME280;48756;41.374;2.066;2022-07-06T10:23:32;101358.72;;;30.46;41.79
56042;BME280;48756;41.374;2.066;2022-07-06T10:25:58;101368.63;;;29.58;41.93
56042;BME280;48756;41.374;2.066;2022-07-06T10:28:23;101367.50;;;29.61;43.97
56042;BME280;48756;41.374;2.066;2022-07-06T10:30:49;101381.69;;;30.51;40.81
56042;BME280;48756;41.374;2.066;2022-07-06T10:33:15;101398.50;;;30.32;44.76
56042;BME280;48756;41.374;2.066;2022-07-06T10:35:41;101415.06;;;29.25;43.67
56042;BME280;48756;41.374;2.066;2022-07-06T10:38:08;101413.53;;;28.99;43.00
56042;BME280;48756;41.374;2.066;2022-07-06T10:40:34;101404.56;;;29.22;44.69
56042;BME280;48756;41.374;2.066;2022-07-06T10:43:18;101434.59;;;29.38;43.13
56042;BME280;48756;41.374;2.066;2022-07-06T10:50:37;101477.66;;;29.72;42.26
56042;BME280;48756;41.374;2.066;2022-07-06T10:53:04;101480.03;;;30.10;42.80
56042;BME280;48756;41.374;2.066;2022-07-06T10:55:35;101498.81;;;29.99;41.78
56042;BME280;48756;41.374;2.066;2022-07-06T10:58:01;101504.22;;;29.52;42.89
56042;BME280;48756;41.374;2.066;2022-07-06T11:00:42;101497.81;;;29.66;42.61
56042;BME280;48756;41.374;2.066;2022-07-06T11:05:57;101497.84;;;29.88;40.60
56042;BME280;48756;41.374;2.066;2022-07-06T11:08:22;101489.03;;;29.75;41.29
56042;BME280;48756;41.374;2.066;2022-07-06T11:10:48;101471.34;;;30.29;40.67
56042;BME280;48756;41.374;2.066;2022-07-06T11:13:26;101460.22;;;30.88;39.90
56042;BME280;48756;41.374;2.066;2022-07-06T11:15:52;101443.28;;;30.10;40.49
56042;BME280;48756;41.374;2.066;2022-07-06T11:18:25;101433.94;;;30.26;41.73
56042;BME280;48756;41.374;2.066;2022-07-06T11:23:34;101353.13;;;29.50;43.16
56042;BME280;48756;41.374;2.066;2022-07-06T11:26:00;101319.72;;;29.19;46.42
56042;BME280;48756;41.374;2.066;2022-07-06T11:28:26;101320.47;;;28.99;47.63
56042;BME280;48756;41.374;2.066;2022-07-06T11:30:51;101374.81;;;28.90;50.43
56042;BME280;48756;41.374;2.066;2022-07-06T11:33:30;101422.81;;;28.82;52.66
56042;BME280;48756;41.374;2.066;2022-07-06T11:36:15;101460.59;;;28.42;50.74
56042;BME280;48756;41.374;2.066;2022-07-06T11:38:41;101490.72;;;28.46;52.66
56042;BME280;48756;41.374;2.066;2022-07-06T11:41:06;101534.28;;;27.98;52.24
56042;BME280;48756;41.374;2.066;2022-07-06T11:43:32;101539.44;;;27.89;53.44
56042;BME280;48756;41.374;2.066;2022-07-06T11:45:57;101519.25;;;27.83;53.53
56042;BME280;48756;41.374;2.066;2022-07-06T11:48:23;101525.94;;;27.90;52.57
56042;BME280;48756;41.374;2.066;2022-07-06T11:51:01;101515.53;;;27.98;52.57
56042;BME280;48756;41.374;2.066;2022-07-06T11:53:26;101508.66;;;27.94;53.29
56042;BME280;48756;41.374;2.066;2022-07-06T11:55:52;101483.16;;;28.01;53.64
56042;BME280;48756;41.374;2.066;2022-07-06T11:58:22;101468.03;;;28.00;52.96
56042;BME280;48756;41.374;2.066;2022-07-06T12:01:07;101454.13;;;27.95;51.61
56042;BME280;48756;41.374;2.066;2022-07-06T12:03:33;101441.78;;;28.31;54.21
56042;BME280;48756;41.374;2.066;2022-07-06T12:06:00;101426.00;;;28.26;51.37
56042;BME280;48756;41.374;2.066;2022-07-06T12:08:26;101411.31;;;28.32;51.90
56042;BME280;48756;41.374;2.066;2022-07-06T12:10:51;101404.56;;;28.26;49.64
56042;BME280;48756;41.374;2.066;2022-07-06T12:13:18;101401.91;;;28.14;49.86
56042;BME280;48756;41.374;2.066;2022-07-06T12:15:43;101396.41;;;28.28;50.53
56042;BME280;48756;41.374;2.066;2022-07-06T12:18:08;101385.09;;;28.12;53.35
56042;BME280;48756;41.374;2.066;2022-07-06T12:20:34;101381.72;;;27.84;54.76
56042;BME280;48756;41.374;2.066;2022-07-06T12:23:03;101410.44;;;27.69;55.53
56042;BME280;48756;41.374;2.066;2022-07-06T12:25:32;101406.13;;;27.80;55.31
56042;BME280;48756;41.374;2.066;2022-07-06T12:27:58;101357.72;;;27.57;57.11
56042;BME280;48756;41.374;2.066;2022-07-06T12:30:23;101317.91;;;27.65;57.98
56042;BME280;48756;41.374;2.066;2022-07-06T12:35:33;101335.59;;;27.68;56.97
56042;BME280;48756;41.374;2.066;2022-07-06T12:37:58;101336.66;;;27.65;56.01
56042;BME280;48756;41.374;2.066;2022-07-06T12:40:25;101366.72;;;27.56;54.67
56042;BME280;48756;41.374;2.066;2022-07-06T12:42:51;101382.59;;;27.72;55.15
56042;BME280;48756;41.374;2.066;2022-07-06T12:45:17;101394.03;;;27.74;53.38
56042;BME280;48756;41.374;2.066;2022-07-06T12:47:56;101398.53;;;27.48;53.78
56042;BME280;48756;41.374;2.066;2022-07-06T12:50:21;101385.59;;;27.42;54.15
56042;BME280;48756;41.374;2.066;2022-07-06T12:52:55;101372.50;;;27.25;54.51
56042;BME280;48756;41.374;2.066;2022-07-06T12:55:24;101389.50;;;26.71;59.33
56042;BME280;48756;41.374;2.066;2022-07-06T12:57:50;101379.94;;;26.54;61.15
56042;BME280;48756;41.374;2.066;2022-07-06T13:00:17;101373.25;;;26.47;61.86